createdAt,value
2023-04-01T00:01:19.186Z,4.84
2023-04-01T00:03:47.657Z,4.81
2023-04-01T00:06:18.613Z,4.80
2023-04-01T00:08:47.839Z,4.79
2023-04-01T00:11:17.003Z,4.76
2023-04-01T00:13:45.606Z,4.74
2023-04-01T00:16:21.822Z,4.70
2023-04-01T00:18:52.353Z,4.67
2023-04-01T00:21:22.251Z,4.63
2023-04-01T00:23:53.701Z,4.61
2023-04-01T00:26:23.191Z,4.59
2023-04-01T00:28:52.214Z,4.56
2023-04-01T00:31:21.810Z,4.54
2023-04-01T00:33:50.878Z,4.50
2023-04-01T00:36:22.960Z,4.46
2023-04-01T00:38:52.915Z,4.40
2023-04-01T00:41:22.639Z,4.34
2023-04-01T00:43:53.684Z,4.28
2023-04-01T00:46:22.047Z,4.22
2023-04-01T00:48:54.500Z,4.12
2023-04-01T00:51:30.367Z,4.03
2023-04-01T00:54:02.944Z,3.93
2023-04-01T00:56:49.963Z,3.85
2023-04-01T00:59:26.260Z,3.79
2023-04-01T01:01:55.033Z,3.73
2023-04-01T01:04:29.399Z,3.68
2023-04-01T01:07:21.091Z,3.62
2023-04-01T01:10:11.020Z,3.57
2023-04-01T01:13:12.371Z,3.56
2023-04-01T01:15:58.591Z,3.54
2023-04-01T01:18:38.957Z,3.52
2023-04-01T01:21:22.582Z,3.50
2023-04-01T01:24:08.896Z,3.45
2023-04-01T01:27:03.240Z,3.42
2023-04-01T01:29:56.512Z,3.40
2023-04-01T01:32:56.868Z,3.37
2023-04-01T01:35:51.202Z,3.35
2023-04-01T01:38:25.318Z,3.32
2023-04-01T01:41:03.441Z,3.30
2023-04-01T01:43:36.553Z,3.29
2023-04-01T01:46:12.789Z,3.28
2023-04-01T01:48:44.030Z,3.26
2023-04-01T01:51:13.119Z,3.22
2023-04-01T01:53:42.096Z,3.19
2023-04-01T01:56:15.084Z,3.17
2023-04-01T01:58:48.830Z,3.14
2023-04-01T02:01:25.859Z,3.12
2023-04-01T02:03:56.967Z,3.08
2023-04-01T02:06:29.531Z,3.05
2023-04-01T02:09:04.306Z,3.03
2023-04-01T02:11:45.279Z,3.04
2023-04-01T02:14:27.604Z,3.04
2023-04-01T02:17:07.834Z,3.06
2023-04-01T02:19:46.250Z,3.09
2023-04-01T02:22:20.505Z,3.12
2023-04-01T02:24:51.975Z,3.13
2023-04-01T02:27:21.781Z,3.15
2023-04-01T02:29:51.716Z,3.18
2023-04-01T02:32:21.768Z,3.20
2023-04-01T02:34:51.732Z,3.21
2023-04-01T02:37:20.724Z,3.20
2023-04-01T02:39:50.324Z,3.17
2023-04-01T02:42:20.210Z,3.16
2023-04-01T02:44:49.173Z,3.17
2023-04-01T02:47:18.273Z,3.18
2023-04-01T02:49:46.699Z,3.21
2023-04-01T02:52:15.166Z,3.24
2023-04-01T02:54:43.762Z,3.23
2023-04-01T02:57:12.150Z,3.22
2023-04-01T02:59:40.664Z,3.19
2023-04-01T07:36:08.361Z,10.13
2023-04-01T07:38:48.521Z,10.09
2023-04-01T07:41:36.214Z,10.08
2023-04-01T07:44:31.167Z,10.06
2023-04-01T07:47:30.882Z,10.05
2023-04-01T07:50:27.172Z,10.06
2023-04-01T07:52:54.383Z,10.07
2023-04-01T07:55:24.491Z,10.07
2023-04-01T07:58:08.736Z,10.08
2023-04-01T08:01:03.707Z,10.08
2023-04-01T08:03:59.466Z,10.09
2023-04-01T08:06:54.461Z,10.08
2023-04-01T08:09:39.638Z,10.05
2023-04-01T08:12:45.916Z,10.03
2023-04-01T08:15:57.585Z,10.00
2023-04-01T08:18:50.347Z,9.93
2023-04-01T08:21:36.142Z,9.86
2023-04-01T08:24:19.268Z,9.78
2023-04-01T08:26:54.140Z,9.69
2023-04-01T08:29:26.526Z,9.62
2023-04-01T08:32:13.917Z,9.55
2023-04-01T08:34:46.269Z,9.48
2023-04-01T08:37:33.656Z,9.44
2023-04-01T08:40:28.313Z,9.41
2023-04-01T08:43:25.757Z,9.41
2023-04-01T08:49:56.549Z,9.47
2023-04-01T08:52:51.548Z,9.45
2023-04-01T08:55:39.609Z,9.47
2023-04-01T08:58:40.618Z,9.48
2023-04-01T09:01:21.595Z,9.51
2023-04-01T09:04:26.243Z,9.54
2023-04-01T09:07:28.651Z,9.59
2023-04-01T09:10:14.462Z,9.64
2023-04-01T09:13:21.424Z,9.68
2023-04-01T09:16:23.749Z,9.74
2023-04-01T09:19:12.558Z,9.81
2023-04-01T09:22:14.815Z,9.86
2023-04-01T09:28:52.971Z,10.08
2023-04-01T09:32:02.897Z,10.16
2023-04-01T09:35:22.920Z,10.23
2023-04-01T09:38:09.919Z,10.29
2023-04-01T09:40:55.209Z,10.32
2023-04-01T09:44:02.782Z,10.34
2023-04-01T09:46:59.241Z,10.40
2023-04-01T09:49:31.149Z,10.54
2023-04-01T09:52:10.846Z,10.69
2023-04-01T09:55:00.712Z,10.77
2023-04-01T09:57:46.193Z,10.87
2023-04-01T10:00:51.533Z,11.06
2023-04-01T10:03:56.160Z,11.22
2023-04-01T10:06:59.056Z,11.43
2023-04-01T10:10:05.684Z,11.60
2023-04-01T10:12:39.957Z,11.83
2023-04-01T10:15:20.812Z,12.01
2023-04-01T10:18:26.920Z,12.07
2023-04-01T10:21:24.634Z,12.08
2023-04-01T10:23:53.062Z,12.13
2023-04-01T10:26:45.330Z,12.25
2023-04-01T10:30:07.091Z,12.36
2023-04-01T10:33:08.377Z,12.38
2023-04-01T10:35:52.138Z,12.35
2023-04-01T10:38:29.403Z,12.38
2023-04-01T10:41:19.730Z,12.41
2023-04-01T10:44:29.107Z,12.39
2023-04-01T10:47:14.062Z,12.36
2023-04-01T10:50:11.156Z,12.41
2023-04-01T10:53:16.079Z,12.43
2023-04-01T10:56:31.328Z,12.62
2023-04-01T10:59:34.134Z,12.83
2023-04-01T11:02:40.111Z,12.98
2023-04-01T11:05:42.389Z,13.16
2023-04-01T11:08:39.984Z,13.31
2023-04-01T11:11:26.800Z,13.40
2023-04-01T11:14:13.401Z,13.45
2023-04-01T11:17:01.048Z,13.46
2023-04-01T11:19:51.246Z,13.48
2023-04-01T11:22:25.960Z,13.49
2023-04-01T11:25:10.583Z,13.49
2023-04-01T11:28:03.872Z,13.54
2023-04-01T11:31:01.905Z,13.57
2023-04-01T11:33:40.027Z,13.60
2023-04-01T11:36:20.594Z,13.57
2023-04-01T11:39:11.696Z,13.65
2023-04-01T11:42:45.287Z,13.75
2023-04-01T11:45:47.678Z,13.79
2023-04-01T11:48:38.005Z,14.04
2023-04-01T11:51:35.692Z,14.21
2023-04-01T11:54:44.266Z,14.34
2023-04-01T11:57:30.721Z,14.43
2023-04-01T12:00:19.767Z,14.47
2023-04-01T12:03:25.861Z,14.52
2023-04-01T12:06:04.761Z,14.42
2023-04-01T12:08:34.215Z,14.43
2023-04-01T12:11:40.672Z,14.37
2023-04-01T12:14:37.843Z,14.34
2023-04-01T12:17:40.428Z,14.28
2023-04-01T12:20:27.074Z,14.22
2023-04-01T12:23:33.647Z,14.17
2023-04-01T12:26:28.462Z,14.14
2023-04-01T12:29:06.049Z,14.12
2023-04-01T12:31:57.243Z,14.03
2023-04-01T12:34:34.767Z,14.05
2023-04-01T12:37:21.972Z,14.02
2023-04-01T12:39:59.797Z,13.96
2023-04-01T12:42:45.881Z,13.96
2023-04-01T12:45:23.456Z,13.94
2023-04-01T12:48:37.001Z,14.06
2023-04-01T12:51:11.378Z,14.09
2023-04-01T12:54:16.865Z,14.17
2023-04-01T12:57:03.259Z,14.27
2023-04-01T12:59:53.811Z,14.35
2023-04-01T13:02:31.303Z,14.37
2023-04-01T13:05:17.878Z,14.49
2023-04-01T13:08:07.236Z,14.50
2023-04-01T13:10:59.477Z,14.54
2023-04-01T13:13:46.545Z,14.62
2023-04-01T13:16:40.068Z,14.69
2023-04-01T13:20:01.809Z,14.70
2023-04-01T13:22:54.234Z,14.66
2023-04-01T13:25:29.204Z,14.71
2023-04-01T13:28:28.824Z,14.65
2023-04-01T13:31:07.670Z,14.58
2023-04-01T13:33:38.872Z,14.69
2023-04-01T13:36:25.191Z,14.66
2023-04-01T13:39:21.777Z,14.72
2023-04-01T13:46:08.411Z,14.75
2023-04-01T13:49:00.161Z,14.70
2023-04-01T13:52:00.164Z,14.62
2023-04-01T13:54:43.820Z,14.60
2023-04-01T13:57:49.493Z,14.60
2023-04-01T14:00:48.383Z,14.64
2023-04-01T14:03:31.535Z,14.50
2023-04-01T14:06:44.884Z,14.57
2023-04-01T14:09:22.100Z,14.61
2023-04-01T14:11:56.543Z,14.61
2023-04-01T14:14:31.072Z,14.51
2023-04-01T14:17:28.642Z,14.56
2023-04-01T14:20:26.994Z,14.48
2023-04-01T14:23:29.272Z,14.41
2023-04-01T14:26:12.723Z,14.39
2023-04-01T14:29:08.752Z,14.39
2023-04-01T14:31:53.210Z,14.22
2023-04-01T14:34:59.453Z,14.21
2023-04-01T14:38:00.370Z,14.16
2023-04-01T14:40:54.325Z,14.14
2023-04-01T14:43:45.709Z,14.09
2023-04-01T14:46:34.442Z,14.05
2023-04-01T14:49:40.635Z,13.88
2023-04-01T14:52:37.117Z,14.01
2023-04-01T14:55:35.937Z,13.97
2023-04-01T14:58:18.513Z,13.89
2023-04-01T15:01:05.958Z,13.95
2023-04-01T15:03:49.124Z,13.96
2023-04-01T15:06:45.108Z,13.92
2023-04-01T15:09:40.063Z,13.78
2023-04-01T15:12:30.490Z,13.88
2023-04-01T15:15:31.172Z,13.86
2023-04-01T15:18:20.267Z,13.83
2023-04-01T15:21:20.108Z,13.76
2023-04-01T15:24:12.845Z,13.74
2023-04-01T15:27:03.120Z,13.69
2023-04-01T15:30:13.168Z,13.69
2023-04-01T15:33:09.201Z,13.68
2023-04-01T15:35:46.808Z,13.69
2023-04-01T15:38:49.363Z,13.62
2023-04-01T15:41:37.207Z,13.67
2023-04-01T15:44:25.562Z,13.60
2023-04-01T15:46:53.952Z,13.53
2023-04-01T15:50:01.370Z,13.53
2023-04-01T15:52:51.451Z,13.45
2023-04-01T15:55:22.369Z,13.40
2023-04-01T15:58:03.201Z,13.40
2023-04-01T16:00:43.312Z,13.34
2023-04-01T16:03:49.707Z,13.32
2023-04-01T16:06:28.695Z,13.26
2023-04-01T16:09:22.289Z,13.29
2023-04-01T16:12:19.300Z,13.22
2023-04-01T16:15:01.446Z,13.22
2023-04-01T16:17:43.188Z,13.23
2023-04-01T16:20:45.766Z,13.16
2023-04-01T16:23:27.924Z,13.12
2023-04-01T16:26:19.930Z,13.08
2023-04-01T16:28:56.414Z,13.03
2023-04-01T16:31:27.783Z,13.01
2023-04-01T16:34:05.756Z,13.01
2023-04-01T16:36:51.583Z,12.92
2023-04-01T16:39:47.675Z,12.92
2023-04-01T16:42:44.132Z,12.87
2023-04-01T16:45:45.498Z,12.82
2023-04-01T16:48:54.072Z,12.79
2023-04-01T16:51:46.240Z,12.72
2023-04-01T16:54:36.402Z,12.70
2023-04-01T16:57:05.222Z,12.66
2023-04-01T16:59:56.469Z,12.65
2023-04-01T17:02:31.633Z,12.60
2023-04-01T17:05:09.656Z,12.57
2023-04-01T17:08:12.371Z,12.55
2023-04-01T17:10:54.666Z,12.46
2023-04-01T17:13:51.694Z,12.47
2023-04-01T17:16:20.964Z,12.39
2023-04-01T17:19:01.898Z,12.35
2023-04-01T17:22:03.046Z,12.31
2023-04-01T17:25:19.312Z,12.31
2023-04-01T17:28:00.343Z,12.22
2023-04-01T17:30:47.285Z,12.18
2023-04-01T17:34:03.739Z,12.16
2023-04-01T17:36:41.400Z,12.17
2023-04-01T17:39:29.993Z,12.16
2023-04-01T17:42:06.702Z,12.12
2023-04-01T17:44:56.166Z,12.07
2023-04-01T17:47:30.983Z,12.03
2023-04-01T17:50:11.784Z,12.02
2023-04-01T17:53:00.917Z,11.98
2023-04-01T17:56:02.025Z,11.98
2023-04-01T17:58:48.111Z,11.93
2023-04-01T18:01:38.362Z,11.92
2023-04-01T18:04:48.666Z,11.92
2023-04-01T18:07:26.357Z,11.88
2023-04-01T18:10:05.974Z,11.87
2023-04-01T18:12:47.105Z,11.85
2023-04-01T18:15:34.484Z,11.83
2023-04-01T18:18:20.393Z,11.81
2023-04-01T18:21:08.383Z,11.76
2023-04-01T18:24:04.015Z,11.69
2023-04-01T18:26:39.867Z,11.61
2023-04-01T18:29:19.247Z,11.56
2023-04-01T18:31:56.542Z,11.49
2023-04-01T18:34:53.658Z,11.46
2023-04-01T18:37:32.915Z,11.39
2023-04-01T18:40:37.734Z,11.38
2023-04-01T18:43:41.297Z,11.35
2023-04-01T18:46:40.717Z,11.28
2023-04-01T18:49:30.779Z,11.24
2023-04-01T18:52:09.800Z,11.24
2023-04-01T18:54:54.475Z,11.20
2023-04-01T18:57:24.697Z,11.22
2023-04-01T19:00:09.792Z,11.23
2023-04-01T19:02:38.219Z,11.22
2023-04-01T19:05:19.582Z,11.23
2023-04-01T19:07:54.620Z,11.27
2023-04-01T19:10:32.500Z,11.26
2023-04-01T19:13:19.809Z,11.26
2023-04-01T19:15:52.357Z,11.23
2023-04-01T19:18:51.851Z,11.18
2023-04-01T19:21:28.199Z,11.15
2023-04-01T19:24:24.053Z,11.12
2023-04-01T19:27:04.207Z,11.09
2023-04-01T19:29:44.680Z,11.02
2023-04-01T19:32:42.442Z,10.96
2023-04-01T19:35:24.590Z,10.89
2023-04-01T19:38:03.118Z,10.84
2023-04-01T19:40:53.549Z,10.76
2023-04-01T19:43:53.098Z,10.66
2023-04-01T19:46:26.388Z,10.60
2023-04-01T19:49:13.984Z,10.60
2023-04-01T19:51:55.870Z,10.58
2023-04-01T19:54:33.387Z,10.54
2023-04-01T19:57:07.884Z,10.52
2023-04-01T19:59:43.584Z,10.50
2023-04-01T20:02:42.951Z,10.47
2023-04-01T20:05:44.049Z,10.48
2023-04-01T20:08:12.725Z,10.48
2023-04-01T20:10:53.363Z,10.46
2023-04-01T20:14:00.861Z,10.47
2023-04-01T20:17:00.021Z,10.49
2023-04-01T20:19:50.042Z,10.48
2023-04-01T20:22:29.630Z,10.49
2023-04-01T20:25:14.020Z,10.51
2023-04-01T20:27:53.214Z,10.50
2023-04-01T20:30:59.430Z,10.49
2023-04-01T20:33:58.908Z,10.51
2023-04-01T20:36:39.361Z,10.50
2023-04-01T20:39:22.930Z,10.48
2023-04-01T20:42:28.027Z,10.46
2023-04-01T20:45:00.622Z,10.43
2023-04-01T20:47:29.119Z,10.42
2023-04-01T20:50:25.815Z,10.42
2023-04-01T20:53:05.732Z,10.40
2023-04-01T20:56:08.547Z,10.38
2023-04-01T20:58:47.912Z,10.37
2023-04-01T21:01:53.750Z,10.34
2023-04-01T21:05:03.819Z,10.30
2023-04-01T21:07:44.256Z,10.28
2023-04-01T21:10:42.092Z,10.26
2023-04-01T21:13:29.013Z,10.26
2023-04-01T21:16:21.198Z,10.27
2023-04-01T21:18:50.036Z,10.29
2023-04-01T21:21:35.060Z,10.29
2023-04-01T21:25:04.139Z,10.20
2023-04-01T21:27:48.036Z,10.15
2023-04-01T21:30:41.637Z,10.16
2023-04-01T21:33:27.956Z,10.15
2023-04-01T21:36:05.545Z,10.18
2023-04-01T21:38:42.910Z,10.18
2023-04-01T21:41:21.344Z,10.20
2023-04-01T21:44:19.902Z,10.19
2023-04-01T21:50:41.190Z,10.21
2023-04-01T21:53:47.221Z,10.20
2023-04-01T21:56:15.709Z,10.18
2023-04-01T21:59:21.579Z,10.19
2023-04-01T22:02:08.113Z,10.18
2023-04-01T22:04:45.330Z,10.16
2023-04-01T22:07:25.632Z,10.16
2023-04-01T22:10:12.133Z,10.14
2023-04-01T22:12:51.655Z,10.12
2023-04-01T22:16:02.358Z,10.08
2023-04-01T22:19:04.942Z,9.98
2023-04-01T22:22:02.598Z,9.97
2023-04-01T22:24:40.502Z,9.94
2023-04-01T22:27:22.548Z,9.93
2023-04-01T22:29:53.870Z,9.93
2023-04-01T22:32:29.563Z,9.89
2023-04-01T22:35:12.602Z,9.88
2023-04-01T22:38:00.173Z,9.89
2023-04-01T22:40:57.101Z,9.86
2023-04-01T22:43:40.786Z,9.84
2023-04-01T22:46:18.226Z,9.82
2023-04-01T22:48:49.158Z,9.78
2023-04-01T22:51:25.564Z,9.74
2023-04-01T22:54:03.532Z,9.70
2023-04-01T22:56:38.917Z,9.69
2023-04-01T22:59:21.885Z,9.66
2023-04-01T23:02:08.325Z,9.64
2023-04-01T23:04:44.681Z,9.64
2023-04-01T23:07:48.015Z,9.64
2023-04-01T23:10:39.293Z,9.64
2023-04-01T23:13:15.113Z,9.66
2023-04-01T23:15:46.163Z,9.70
2023-04-01T23:18:36.134Z,9.73
2023-04-01T23:21:07.422Z,9.74
2023-04-01T23:23:50.902Z,9.73
2023-04-01T23:26:38.336Z,9.72
2023-04-01T23:29:16.362Z,9.74
2023-04-01T23:31:49.411Z,9.73
2023-04-01T23:34:25.556Z,9.73
2023-04-01T23:37:00.296Z,9.72
2023-04-01T23:39:35.786Z,9.71
2023-04-01T23:42:14.597Z,9.71
2023-04-01T23:44:44.967Z,9.72
2023-04-01T23:47:19.075Z,9.77
2023-04-01T23:49:56.470Z,9.83
2023-04-01T23:52:27.683Z,9.88
2023-04-01T23:55:04.685Z,9.89
2023-04-01T23:57:37.865Z,9.90
